sensor_id;sensor_type;location;lat;lon;timestamp;P1;durP1;ratioP1;P2;durP2;ratioP2
44181;SDS011;30436;48.888;9.202;2022-10-23T00:01:10;3.73;;;2.57;;
44181;SDS011;30436;48.888;9.202;2022-10-23T00:04:00;4.30;;;2.47;;
44181;SDS011;30436;48.888;9.202;2022-10-23T00:06:28;8.30;;;3.00;;
44181;SDS011;30436;48.888;9.202;2022-10-23T00:08:56;3.43;;;2.17;;
44181;SDS011;30436;48.888;9.202;2022-10-23T00:11:22;4.03;;;2.27;;
44181;SDS011;30436;48.888;9.202;2022-10-23T00:13:52;5.13;;;2.53;;
44181;SDS011;30436;48.888;9.202;2022-10-23T00:16:21;9.53;;;2.77;;
44181;SDS011;30436;48.888;9.202;2022-10-23T00:18:47;5.13;;;2.40;;
44181;SDS011;30436;48.888;9.202;2022-10-23T00:21:13;6.63;;;2.67;;
44181;SDS011;30436;48.888;9.202;2022-10-23T00:23:41;5.43;;;2.40;;
44181;SDS011;30436;48.888;9.202;2022-10-23T00:26:07;8.30;;;2.30;;
44181;SDS011;30436;48.888;9.202;2022-10-23T00:28:35;8.23;;;2.27;;
44181;SDS011;30436;48.888;9.202;2022-10-23T00:31:01;4.00;;;1.90;;
44181;SDS011;30436;48.888;9.202;2022-10-23T00:33:28;3.60;;;2.33;;
44181;SDS011;30436;48.888;9.202;2022-10-23T00:35:55;2.90;;;2.03;;
44181;SDS011;30436;48.888;9.202;2022-10-23T00:38:20;4.63;;;2.53;;
44181;SDS011;30436;48.888;9.202;2022-10-23T00:40:46;5.00;;;2.50;;
44181;SDS011;30436;48.888;9.202;2022-10-23T00:43:19;5.93;;;2.30;;
44181;SDS011;30436;48.888;9.202;2022-10-23T00:45:48;3.93;;;2.63;;
44181;SDS011;30436;48.888;9.202;2022-10-23T00:48:14;3.53;;;2.47;;
44181;SDS011;30436;48.888;9.202;2022-10-23T00:50:40;5.40;;;2.50;;
44181;SDS011;30436;48.888;9.202;2022-10-23T00:53:07;2.97;;;2.40;;
44181;SDS011;30436;48.888;9.202;2022-10-23T00:55:35;2.50;;;2.30;;
44181;SDS011;30436;48.888;9.202;2022-10-23T00:58:03;5.83;;;2.10;;
44181;SDS011;30436;48.888;9.202;2022-10-23T01:00:43;2.47;;;2.27;;
44181;SDS011;30436;48.888;9.202;2022-10-23T01:03:18;5.27;;;2.83;;
44181;SDS011;30436;48.888;9.202;2022-10-23T01:05:49;4.87;;;2.40;;
44181;SDS011;30436;48.888;9.202;2022-10-23T01:08:22;7.57;;;2.40;;
44181;SDS011;30436;48.888;9.202;2022-10-23T01:11:16;5.77;;;2.20;;
44181;SDS011;30436;48.888;9.202;2022-10-23T01:16:30;10.37;;;2.63;;
44181;SDS011;30436;48.888;9.202;2022-10-23T01:22:29;6.17;;;2.70;;
44181;SDS011;30436;48.888;9.202;2022-10-23T01:27:20;3.47;;;2.53;;
44181;SDS011;30436;48.888;9.202;2022-10-23T01:30:01;5.27;;;2.60;;
44181;SDS011;30436;48.888;9.202;2022-10-23T01:32:44;5.73;;;2.73;;
44181;SDS011;30436;48.888;9.202;2022-10-23T01:35:20;7.83;;;2.80;;
44181;SDS011;30436;48.888;9.202;2022-10-23T01:38:00;7.53;;;2.90;;
44181;SDS011;30436;48.888;9.202;2022-10-23T01:41:00;4.97;;;2.63;;
44181;SDS011;30436;48.888;9.202;2022-10-23T01:43:31;7.60;;;3.43;;
44181;SDS011;30436;48.888;9.202;2022-10-23T01:46:04;4.67;;;2.87;;
44181;SDS011;30436;48.888;9.202;2022-10-23T01:48:35;4.70;;;2.67;;
44181;SDS011;30436;48.888;9.202;2022-10-23T01:51:03;6.87;;;3.03;;
44181;SDS011;30436;48.888;9.202;2022-10-23T01:53:32;4.63;;;3.20;;
44181;SDS011;30436;48.888;9.202;2022-10-23T01:56:04;6.10;;;3.47;;
44181;SDS011;30436;48.888;9.202;2022-10-23T01:58:34;6.63;;;3.20;;
44181;SDS011;30436;48.888;9.202;2022-10-23T02:01:02;7.77;;;3.20;;
44181;SDS011;30436;48.888;9.202;2022-10-23T02:03:32;7.37;;;3.33;;
44181;SDS011;30436;48.888;9.202;2022-10-23T02:06:01;8.70;;;3.27;;
44181;SDS011;30436;48.888;9.202;2022-10-23T02:08:27;4.73;;;3.40;;
44181;SDS011;30436;48.888;9.202;2022-10-23T02:13:43;8.20;;;3.27;;
44181;SDS011;30436;48.888;9.202;2022-10-23T02:24:30;7.33;;;3.30;;
44181;SDS011;30436;48.888;9.202;2022-10-23T02:27:07;6.73;;;3.70;;
44181;SDS011;30436;48.888;9.202;2022-10-23T02:29:48;5.13;;;3.17;;
44181;SDS011;30436;48.888;9.202;2022-10-23T02:32:27;6.63;;;3.30;;
44181;SDS011;30436;48.888;9.202;2022-10-23T02:34:53;6.27;;;3.27;;
44181;SDS011;30436;48.888;9.202;2022-10-23T02:37:19;7.10;;;3.53;;
44181;SDS011;30436;48.888;9.202;2022-10-23T02:39:45;4.13;;;2.93;;
44181;SDS011;30436;48.888;9.202;2022-10-23T02:42:22;4.97;;;2.70;;
44181;SDS011;30436;48.888;9.202;2022-10-23T02:47:31;6.27;;;2.90;;
44181;SDS011;30436;48.888;9.202;2022-10-23T02:55:33;4.87;;;2.70;;
44181;SDS011;30436;48.888;9.202;2022-10-23T02:58:15;3.97;;;2.57;;
44181;SDS011;30436;48.888;9.202;2022-10-23T03:01:01;8.57;;;3.20;;
44181;SDS011;30436;48.888;9.202;2022-10-23T03:03:37;9.20;;;2.97;;
44181;SDS011;30436;48.888;9.202;2022-10-23T03:06:06;5.57;;;2.70;;
44181;SDS011;30436;48.888;9.202;2022-10-23T03:08:44;8.63;;;2.90;;
44181;SDS011;30436;48.888;9.202;2022-10-23T03:11:14;6.63;;;2.90;;
44181;SDS011;30436;48.888;9.202;2022-10-23T03:13:39;4.37;;;2.67;;
44181;SDS011;30436;48.888;9.202;2022-10-23T03:16:05;7.33;;;2.70;;
44181;SDS011;30436;48.888;9.202;2022-10-23T03:18:33;3.57;;;2.70;;
44181;SDS011;30436;48.888;9.202;2022-10-23T03:21:00;4.33;;;2.20;;
44181;SDS011;30436;48.888;9.202;2022-10-23T03:23:26;7.50;;;2.80;;
44181;SDS011;30436;48.888;9.202;2022-10-23T03:25:53;8.07;;;2.37;;
44181;SDS011;30436;48.888;9.202;2022-10-23T03:28:34;8.63;;;2.40;;
44181;SDS011;30436;48.888;9.202;2022-10-23T03:31:00;4.87;;;2.77;;
44181;SDS011;30436;48.888;9.202;2022-10-23T03:33:27;5.37;;;2.30;;
44181;SDS011;30436;48.888;9.202;2022-10-23T03:35:53;6.60;;;2.60;;
44181;SDS011;30436;48.888;9.202;2022-10-23T03:38:19;5.50;;;2.60;;
44181;SDS011;30436;48.888;9.202;2022-10-23T03:40:45;3.50;;;2.60;;
44181;SDS011;30436;48.888;9.202;2022-10-23T03:43:11;7.67;;;3.40;;
44181;SDS011;30436;48.888;9.202;2022-10-23T03:45:37;6.37;;;2.37;;
44181;SDS011;30436;48.888;9.202;2022-10-23T03:48:04;7.80;;;3.07;;
44181;SDS011;30436;48.888;9.202;2022-10-23T03:50:33;4.90;;;2.40;;
44181;SDS011;30436;48.888;9.202;2022-10-23T03:52:59;5.50;;;2.67;;
44181;SDS011;30436;48.888;9.202;2022-10-23T03:55:25;7.80;;;2.90;;
44181;SDS011;30436;48.888;9.202;2022-10-23T03:57:52;5.40;;;2.63;;
44181;SDS011;30436;48.888;9.202;2022-10-23T04:00:18;6.40;;;2.50;;
44181;SDS011;30436;48.888;9.202;2022-10-23T04:02:45;8.33;;;3.07;;
44181;SDS011;30436;48.888;9.202;2022-10-23T04:05:11;6.83;;;2.83;;
44181;SDS011;30436;48.888;9.202;2022-10-23T04:07:46;5.70;;;3.07;;
44181;SDS011;30436;48.888;9.202;2022-10-23T04:10:11;7.60;;;2.70;;
44181;SDS011;30436;48.888;9.202;2022-10-23T04:12:37;4.00;;;2.83;;
44181;SDS011;30436;48.888;9.202;2022-10-23T04:15:04;4.67;;;2.60;;
44181;SDS011;30436;48.888;9.202;2022-10-23T04:17:30;7.50;;;2.73;;
44181;SDS011;30436;48.888;9.202;2022-10-23T04:19:56;3.73;;;2.90;;
44181;SDS011;30436;48.888;9.202;2022-10-23T04:22:21;5.10;;;2.80;;
44181;SDS011;30436;48.888;9.202;2022-10-23T04:24:47;8.50;;;2.90;;
44181;SDS011;30436;48.888;9.202;2022-10-23T04:27:16;7.23;;;3.10;;
44181;SDS011;30436;48.888;9.202;2022-10-23T04:29:42;5.33;;;3.03;;
44181;SDS011;30436;48.888;9.202;2022-10-23T04:32:08;6.23;;;2.97;;
44181;SDS011;30436;48.888;9.202;2022-10-23T04:34:34;4.17;;;3.00;;
44181;SDS011;30436;48.888;9.202;2022-10-23T04:37:01;8.90;;;3.20;;
44181;SDS011;30436;48.888;9.202;2022-10-23T04:39:27;9.30;;;2.97;;
44181;SDS011;30436;48.888;9.202;2022-10-23T04:41:52;7.00;;;3.03;;
44181;SDS011;30436;48.888;9.202;2022-10-23T04:44:19;6.20;;;2.47;;
44181;SDS011;30436;48.888;9.202;2022-10-23T04:46:45;5.20;;;3.00;;
44181;SDS011;30436;48.888;9.202;2022-10-23T04:49:10;6.57;;;2.80;;
44181;SDS011;30436;48.888;9.202;2022-10-23T04:52:09;4.60;;;3.07;;
44181;SDS011;30436;48.888;9.202;2022-10-23T04:55:13;3.37;;;2.83;;
44181;SDS011;30436;48.888;9.202;2022-10-23T04:57:50;9.00;;;3.20;;
44181;SDS011;30436;48.888;9.202;2022-10-23T05:00:20;5.23;;;2.80;;
44181;SDS011;30436;48.888;9.202;2022-10-23T05:02:49;5.77;;;2.67;;
44181;SDS011;30436;48.888;9.202;2022-10-23T05:05:16;5.53;;;3.07;;
44181;SDS011;30436;48.888;9.202;2022-10-23T05:07:55;6.83;;;2.57;;
44181;SDS011;30436;48.888;9.202;2022-10-23T05:10:47;3.30;;;2.60;;
44181;SDS011;30436;48.888;9.202;2022-10-23T05:13:15;6.33;;;2.90;;
44181;SDS011;30436;48.888;9.202;2022-10-23T05:15:43;6.40;;;2.77;;
44181;SDS011;30436;48.888;9.202;2022-10-23T05:18:28;6.47;;;3.07;;
44181;SDS011;30436;48.888;9.202;2022-10-23T05:21:07;6.43;;;2.80;;
44181;SDS011;30436;48.888;9.202;2022-10-23T05:23:39;6.20;;;2.67;;
44181;SDS011;30436;48.888;9.202;2022-10-23T05:26:07;3.73;;;2.30;;
44181;SDS011;30436;48.888;9.202;2022-10-23T05:28:34;4.43;;;2.70;;
44181;SDS011;30436;48.888;9.202;2022-10-23T05:31:02;2.40;;;2.20;;
44181;SDS011;30436;48.888;9.202;2022-10-23T05:33:29;4.23;;;2.27;;
44181;SDS011;30436;48.888;9.202;2022-10-23T05:35:56;4.10;;;2.20;;
44181;SDS011;30436;48.888;9.202;2022-10-23T05:38:23;4.43;;;2.60;;
44181;SDS011;30436;48.888;9.202;2022-10-23T05:40:51;4.23;;;2.47;;
44181;SDS011;30436;48.888;9.202;2022-10-23T05:43:19;3.77;;;2.33;;
44181;SDS011;30436;48.888;9.202;2022-10-23T05:45:48;8.17;;;2.80;;
44181;SDS011;30436;48.888;9.202;2022-10-23T05:48:32;4.40;;;2.77;;
44181;SDS011;30436;48.888;9.202;2022-10-23T05:51:16;4.40;;;3.00;;
44181;SDS011;30436;48.888;9.202;2022-10-23T05:53:58;4.97;;;2.67;;
44181;SDS011;30436;48.888;9.202;2022-10-23T05:56:30;5.67;;;3.00;;
44181;SDS011;30436;48.888;9.202;2022-10-23T05:59:19;4.83;;;2.40;;
44181;SDS011;30436;48.888;9.202;2022-10-23T06:01:48;5.80;;;2.97;;
44181;SDS011;30436;48.888;9.202;2022-10-23T06:04:19;4.57;;;2.63;;
44181;SDS011;30436;48.888;9.202;2022-10-23T06:07:08;4.57;;;2.50;;
44181;SDS011;30436;48.888;9.202;2022-10-23T06:09:34;7.70;;;3.10;;
44181;SDS011;30436;48.888;9.202;2022-10-23T06:12:01;3.33;;;2.50;;
44181;SDS011;30436;48.888;9.202;2022-10-23T06:14:28;5.17;;;2.50;;
44181;SDS011;30436;48.888;9.202;2022-10-23T06:16:55;6.73;;;2.73;;
44181;SDS011;30436;48.888;9.202;2022-10-23T06:19:22;4.33;;;2.60;;
44181;SDS011;30436;48.888;9.202;2022-10-23T06:21:52;3.97;;;2.50;;
44181;SDS011;30436;48.888;9.202;2022-10-23T06:24:22;4.47;;;2.50;;
44181;SDS011;30436;48.888;9.202;2022-10-23T06:26:53;3.90;;;1.90;;
44181;SDS011;30436;48.888;9.202;2022-10-23T06:29:41;7.67;;;2.37;;
44181;SDS011;30436;48.888;9.202;2022-10-23T06:32:07;7.07;;;2.50;;
44181;SDS011;30436;48.888;9.202;2022-10-23T06:34:33;3.97;;;2.27;;
44181;SDS011;30436;48.888;9.202;2022-10-23T06:36:59;3.43;;;2.67;;
44181;SDS011;30436;48.888;9.202;2022-10-23T06:39:45;5.43;;;2.57;;
44181;SDS011;30436;48.888;9.202;2022-10-23T06:42:28;4.20;;;2.53;;
44181;SDS011;30436;48.888;9.202;2022-10-23T06:44:54;3.83;;;2.43;;
44181;SDS011;30436;48.888;9.202;2022-10-23T06:47:48;3.00;;;2.33;;
44181;SDS011;30436;48.888;9.202;2022-10-23T06:50:27;5.37;;;2.60;;
44181;SDS011;30436;48.888;9.202;2022-10-23T06:52:57;7.43;;;2.77;;
44181;SDS011;30436;48.888;9.202;2022-10-23T06:55:23;7.53;;;2.63;;
44181;SDS011;30436;48.888;9.202;2022-10-23T06:57:49;5.73;;;2.57;;
44181;SDS011;30436;48.888;9.202;2022-10-23T07:00:16;6.40;;;2.90;;
44181;SDS011;30436;48.888;9.202;2022-10-23T07:02:48;5.73;;;2.97;;
44181;SDS011;30436;48.888;9.202;2022-10-23T07:05:14;4.40;;;2.87;;
44181;SDS011;30436;48.888;9.202;2022-10-23T07:07:41;4.03;;;2.83;;
44181;SDS011;30436;48.888;9.202;2022-10-23T07:10:08;6.53;;;2.90;;
44181;SDS011;30436;48.888;9.202;2022-10-23T07:12:41;6.63;;;2.67;;
44181;SDS011;30436;48.888;9.202;2022-10-23T07:15:26;4.87;;;2.63;;
44181;SDS011;30436;48.888;9.202;2022-10-23T07:17:53;5.13;;;2.60;;
44181;SDS011;30436;48.888;9.202;2022-10-23T07:20:20;3.67;;;2.60;;
44181;SDS011;30436;48.888;9.202;2022-10-23T07:22:51;4.97;;;2.70;;
44181;SDS011;30436;48.888;9.202;2022-10-23T07:25:25;5.17;;;2.93;;
44181;SDS011;30436;48.888;9.202;2022-10-23T07:27:51;6.47;;;2.87;;
44181;SDS011;30436;48.888;9.202;2022-10-23T07:30:19;6.20;;;2.40;;
44181;SDS011;30436;48.888;9.202;2022-10-23T07:32:49;4.13;;;2.63;;
44181;SDS011;30436;48.888;9.202;2022-10-23T07:35:34;6.67;;;3.03;;
44181;SDS011;30436;48.888;9.202;2022-10-23T07:38:06;5.27;;;2.67;;
44181;SDS011;30436;48.888;9.202;2022-10-23T07:40:35;3.77;;;2.37;;
44181;SDS011;30436;48.888;9.202;2022-10-23T07:43:02;4.57;;;2.60;;
44181;SDS011;30436;48.888;9.202;2022-10-23T07:45:28;5.57;;;2.33;;
44181;SDS011;30436;48.888;9.202;2022-10-23T07:47:55;7.63;;;2.80;;
44181;SDS011;30436;48.888;9.202;2022-10-23T07:50:24;6.30;;;2.80;;
44181;SDS011;30436;48.888;9.202;2022-10-23T07:52:49;3.03;;;2.30;;
44181;SDS011;30436;48.888;9.202;2022-10-23T07:55:16;7.07;;;2.63;;
44181;SDS011;30436;48.888;9.202;2022-10-23T07:57:46;3.23;;;1.83;;
44181;SDS011;30436;48.888;9.202;2022-10-23T08:00:44;3.97;;;2.43;;
44181;SDS011;30436;48.888;9.202;2022-10-23T08:03:24;4.10;;;1.83;;
44181;SDS011;30436;48.888;9.202;2022-10-23T08:05:52;3.20;;;2.50;;
44181;SDS011;30436;48.888;9.202;2022-10-23T08:08:20;2.03;;;1.63;;
44181;SDS011;30436;48.888;9.202;2022-10-23T08:10:49;4.60;;;1.90;;
44181;SDS011;30436;48.888;9.202;2022-10-23T08:13:22;3.13;;;1.80;;
44181;SDS011;30436;48.888;9.202;2022-10-23T08:15:57;3.93;;;1.83;;
44181;SDS011;30436;48.888;9.202;2022-10-23T08:18:46;2.07;;;1.70;;
44181;SDS011;30436;48.888;9.202;2022-10-23T08:21:14;3.43;;;1.87;;
44181;SDS011;30436;48.888;9.202;2022-10-23T08:23:40;2.73;;;1.50;;
44181;SDS011;30436;48.888;9.202;2022-10-23T08:26:07;1.93;;;1.70;;
44181;SDS011;30436;48.888;9.202;2022-10-23T08:28:33;2.23;;;1.63;;
44181;SDS011;30436;48.888;9.202;2022-10-23T08:31:07;3.73;;;1.50;;
44181;SDS011;30436;48.888;9.202;2022-10-23T08:33:34;3.30;;;1.70;;
44181;SDS011;30436;48.888;9.202;2022-10-23T08:36:00;2.70;;;1.80;;
44181;SDS011;30436;48.888;9.202;2022-10-23T08:38:30;2.27;;;1.60;;
44181;SDS011;30436;48.888;9.202;2022-10-23T08:40:58;1.73;;;1.63;;
44181;SDS011;30436;48.888;9.202;2022-10-23T08:46:46;3.33;;;1.60;;
44181;SDS011;30436;48.888;9.202;2022-10-23T08:49:42;2.67;;;1.43;;
44181;SDS011;30436;48.888;9.202;2022-10-23T08:52:36;1.67;;;1.53;;
44181;SDS011;30436;48.888;9.202;2022-10-23T08:55:12;5.67;;;1.50;;
44181;SDS011;30436;48.888;9.202;2022-10-23T09:00:32;4.60;;;1.40;;
44181;SDS011;30436;48.888;9.202;2022-10-23T09:03:00;5.70;;;1.80;;
44181;SDS011;30436;48.888;9.202;2022-10-23T09:05:33;1.60;;;1.50;;
44181;SDS011;30436;48.888;9.202;2022-10-23T09:08:29;1.97;;;1.60;;
44181;SDS011;30436;48.888;9.202;2022-10-23T09:19:18;3.13;;;2.60;;
44181;SDS011;30436;48.888;9.202;2022-10-23T09:21:50;2.77;;;1.57;;
44181;SDS011;30436;48.888;9.202;2022-10-23T09:24:17;5.27;;;1.57;;
44181;SDS011;30436;48.888;9.202;2022-10-23T09:26:44;3.60;;;1.50;;
44181;SDS011;30436;48.888;9.202;2022-10-23T09:29:19;2.60;;;1.67;;
44181;SDS011;30436;48.888;9.202;2022-10-23T09:31:50;2.63;;;1.63;;
44181;SDS011;30436;48.888;9.202;2022-10-23T09:34:19;2.10;;;1.20;;
44181;SDS011;30436;48.888;9.202;2022-10-23T09:36:51;4.33;;;1.53;;
44181;SDS011;30436;48.888;9.202;2022-10-23T09:39:26;5.60;;;1.30;;
44181;SDS011;30436;48.888;9.202;2022-10-23T09:42:00;3.90;;;1.50;;
44181;SDS011;30436;48.888;9.202;2022-10-23T09:44:45;1.83;;;1.30;;
44181;SDS011;30436;48.888;9.202;2022-10-23T09:47:20;1.30;;;1.20;;
44181;SDS011;30436;48.888;9.202;2022-10-23T09:49:54;2.73;;;1.30;;
44181;SDS011;30436;48.888;9.202;2022-10-23T09:52:33;8.17;;;1.40;;
44181;SDS011;30436;48.888;9.202;2022-10-23T09:55:01;3.70;;;1.47;;
44181;SDS011;30436;48.888;9.202;2022-10-23T09:57:40;5.13;;;1.43;;
44181;SDS011;30436;48.888;9.202;2022-10-23T10:05:37;2.90;;;1.40;;
44181;SDS011;30436;48.888;9.202;2022-10-23T10:10:54;1.87;;;1.13;;
44181;SDS011;30436;48.888;9.202;2022-10-23T10:16:02;4.43;;;1.37;;
44181;SDS011;30436;48.888;9.202;2022-10-23T10:18:42;4.00;;;2.20;;
44181;SDS011;30436;48.888;9.202;2022-10-23T10:21:23;5.20;;;1.47;;
44181;SDS011;30436;48.888;9.202;2022-10-23T10:23:58;1.67;;;1.20;;
44181;SDS011;30436;48.888;9.202;2022-10-23T10:37:45;1.63;;;1.30;;
44181;SDS011;30436;48.888;9.202;2022-10-23T10:40:40;3.83;;;1.60;;
44181;SDS011;30436;48.888;9.202;2022-10-23T10:45:38;1.33;;;1.23;;
44181;SDS011;30436;48.888;9.202;2022-10-23T10:57:23;2.97;;;1.40;;
44181;SDS011;30436;48.888;9.202;2022-10-23T10:59:54;2.83;;;1.50;;
44181;SDS011;30436;48.888;9.202;2022-10-23T11:02:27;1.70;;;1.60;;
44181;SDS011;30436;48.888;9.202;2022-10-23T11:07:40;2.73;;;1.60;;
44181;SDS011;30436;48.888;9.202;2022-10-23T11:10:16;2.33;;;1.37;;
44181;SDS011;30436;48.888;9.202;2022-10-23T11:12:46;1.53;;;1.20;;
44181;SDS011;30436;48.888;9.202;2022-10-23T11:15:14;3.77;;;1.40;;
44181;SDS011;30436;48.888;9.202;2022-10-23T11:17:43;1.40;;;1.30;;
44181;SDS011;30436;48.888;9.202;2022-10-23T11:23:04;1.10;;;1.00;;
44181;SDS011;30436;48.888;9.202;2022-10-23T11:28:13;2.80;;;1.27;;
44181;SDS011;30436;48.888;9.202;2022-10-23T11:30:57;1.80;;;1.20;;
44181;SDS011;30436;48.888;9.202;2022-10-23T11:33:47;2.40;;;1.33;;
44181;SDS011;30436;48.888;9.202;2022-10-23T11:36:44;1.20;;;1.10;;
44181;SDS011;30436;48.888;9.202;2022-10-23T11:39:19;1.30;;;1.20;;
44181;SDS011;30436;48.888;9.202;2022-10-23T11:44:41;3.63;;;1.40;;
44181;SDS011;30436;48.888;9.202;2022-10-23T11:52:36;1.50;;;1.00;;
44181;SDS011;30436;48.888;9.202;2022-10-23T11:55:15;1.83;;;1.07;;
44181;SDS011;30436;48.888;9.202;2022-10-23T11:57:41;2.00;;;1.30;;
44181;SDS011;30436;48.888;9.202;2022-10-23T12:00:21;2.13;;;1.10;;
44181;SDS011;30436;48.888;9.202;2022-10-23T12:02:49;1.80;;;1.30;;
44181;SDS011;30436;48.888;9.202;2022-10-23T12:05:31;2.50;;;1.40;;
44181;SDS011;30436;48.888;9.202;2022-10-23T12:08:02;1.60;;;1.30;;
44181;SDS011;30436;48.888;9.202;2022-10-23T12:10:31;4.47;;;4.07;;
44181;SDS011;30436;48.888;9.202;2022-10-23T12:13:03;2.40;;;1.60;;
44181;SDS011;30436;48.888;9.202;2022-10-23T12:15:31;2.50;;;1.30;;
44181;SDS011;30436;48.888;9.202;2022-10-23T12:18:14;1.67;;;1.40;;
44181;SDS011;30436;48.888;9.202;2022-10-23T12:28:57;1.90;;;1.20;;
44181;SDS011;30436;48.888;9.202;2022-10-23T12:31:56;1.50;;;1.20;;
44181;SDS011;30436;48.888;9.202;2022-10-23T12:35:08;3.53;;;1.33;;
44181;SDS011;30436;48.888;9.202;2022-10-23T12:40:24;4.53;;;1.70;;
44181;SDS011;30436;48.888;9.202;2022-10-23T12:42:54;1.57;;;1.20;;
44181;SDS011;30436;48.888;9.202;2022-10-23T12:45:26;2.23;;;1.20;;
44181;SDS011;30436;48.888;9.202;2022-10-23T12:47:54;1.33;;;1.00;;
44181;SDS011;30436;48.888;9.202;2022-10-23T12:50:27;2.07;;;1.30;;
44181;SDS011;30436;48.888;9.202;2022-10-23T12:52:55;3.70;;;1.33;;
44181;SDS011;30436;48.888;9.202;2022-10-23T12:55:44;2.70;;;1.27;;
44181;SDS011;30436;48.888;9.202;2022-10-23T12:58:21;2.63;;;1.70;;
44181;SDS011;30436;48.888;9.202;2022-10-23T13:00:54;2.20;;;1.30;;
44181;SDS011;30436;48.888;9.202;2022-10-23T13:03:22;2.23;;;1.47;;
44181;SDS011;30436;48.888;9.202;2022-10-23T13:05:50;3.33;;;1.40;;
44181;SDS011;30436;48.888;9.202;2022-10-23T13:08:18;3.00;;;1.60;;
44181;SDS011;30436;48.888;9.202;2022-10-23T13:11:05;3.30;;;1.40;;
44181;SDS011;30436;48.888;9.202;2022-10-23T13:13:37;2.83;;;1.60;;
44181;SDS011;30436;48.888;9.202;2022-10-23T13:16:14;1.43;;;1.33;;
44181;SDS011;30436;48.888;9.202;2022-10-23T13:18:42;2.30;;;1.33;;
44181;SDS011;30436;48.888;9.202;2022-10-23T13:21:14;2.23;;;1.70;;
44181;SDS011;30436;48.888;9.202;2022-10-23T13:23:47;2.20;;;1.60;;
44181;SDS011;30436;48.888;9.202;2022-10-23T13:26:24;2.75;;;1.40;;
44181;SDS011;30436;48.888;9.202;2022-10-23T13:29:12;1.65;;;1.35;;
44181;SDS011;30436;48.888;9.202;2022-10-23T13:32:08;2.22;;;1.30;;
44181;SDS011;30436;48.888;9.202;2022-10-23T13:34:52;5.15;;;1.40;;
44181;SDS011;30436;48.888;9.202;2022-10-23T13:37:27;5.05;;;1.40;;
44181;SDS011;30436;48.888;9.202;2022-10-23T13:40:01;3.13;;;1.52;;
44181;SDS011;30436;48.888;9.202;2022-10-23T13:42:48;5.05;;;1.85;;
44181;SDS011;30436;48.888;9.202;2022-10-23T13:45:15;4.45;;;1.50;;
44181;SDS011;30436;48.888;9.202;2022-10-23T13:47:44;3.20;;;1.40;;
44181;SDS011;30436;48.888;9.202;2022-10-23T13:50:09;5.28;;;1.55;;
44181;SDS011;30436;48.888;9.202;2022-10-23T13:52:35;2.55;;;1.30;;
44181;SDS011;30436;48.888;9.202;2022-10-23T13:55:02;3.92;;;1.40;;
44181;SDS011;30436;48.888;9.202;2022-10-23T13:57:34;3.03;;;1.45;;
44181;SDS011;30436;48.888;9.202;2022-10-23T13:59:59;1.48;;;1.30;;
44181;SDS011;30436;48.888;9.202;2022-10-23T14:02:25;2.45;;;1.20;;
44181;SDS011;30436;48.888;9.202;2022-10-23T14:04:50;2.05;;;1.42;;
44181;SDS011;30436;48.888;9.202;2022-10-23T14:07:16;3.38;;;1.55;;
44181;SDS011;30436;48.888;9.202;2022-10-23T14:09:42;1.42;;;1.33;;
44181;SDS011;30436;48.888;9.202;2022-10-23T14:12:08;4.75;;;1.50;;
44181;SDS011;30436;48.888;9.202;2022-10-23T14:14:36;2.97;;;1.80;;
44181;SDS011;30436;48.888;9.202;2022-10-23T14:17:01;2.75;;;1.92;;
44181;SDS011;30436;48.888;9.202;2022-10-23T14:19:27;1.77;;;1.60;;
44181;SDS011;30436;48.888;9.202;2022-10-23T14:21:52;4.82;;;1.98;;
44181;SDS011;30436;48.888;9.202;2022-10-23T14:24:18;4.47;;;2.10;;
44181;SDS011;30436;48.888;9.202;2022-10-23T14:26:44;2.47;;;1.73;;
44181;SDS011;30436;48.888;9.202;2022-10-23T14:29:09;2.28;;;1.75;;
44181;SDS011;30436;48.888;9.202;2022-10-23T14:31:35;4.65;;;3.25;;
44181;SDS011;30436;48.888;9.202;2022-10-23T14:34:01;4.35;;;2.60;;
44181;SDS011;30436;48.888;9.202;2022-10-23T14:36:26;5.93;;;3.10;;
44181;SDS011;30436;48.888;9.202;2022-10-23T14:38:53;3.60;;;2.50;;
44181;SDS011;30436;48.888;9.202;2022-10-23T14:41:23;3.40;;;1.70;;
44181;SDS011;30436;48.888;9.202;2022-10-23T14:43:49;4.70;;;1.87;;
44181;SDS011;30436;48.888;9.202;2022-10-23T14:46:16;2.47;;;1.93;;
44181;SDS011;30436;48.888;9.202;2022-10-23T14:48:43;9.23;;;2.53;;
44181;SDS011;30436;48.888;9.202;2022-10-23T14:51:17;4.07;;;2.97;;
44181;SDS011;30436;48.888;9.202;2022-10-23T14:53:45;4.90;;;3.00;;
44181;SDS011;30436;48.888;9.202;2022-10-23T14:56:11;5.03;;;2.43;;
44181;SDS011;30436;48.888;9.202;2022-10-23T14:58:37;5.27;;;2.83;;
44181;SDS011;30436;48.888;9.202;2022-10-23T15:01:03;2.85;;;2.30;;
44181;SDS011;30436;48.888;9.202;2022-10-23T15:03:28;2.50;;;2.05;;
44181;SDS011;30436;48.888;9.202;2022-10-23T15:05:54;6.53;;;4.50;;
44181;SDS011;30436;48.888;9.202;2022-10-23T15:08:20;5.83;;;3.00;;
44181;SDS011;30436;48.888;9.202;2022-10-23T15:10:47;4.70;;;3.07;;
44181;SDS011;30436;48.888;9.202;2022-10-23T15:13:13;6.80;;;4.10;;
44181;SDS011;30436;48.888;9.202;2022-10-23T15:15:38;5.17;;;2.90;;
44181;SDS011;30436;48.888;9.202;2022-10-23T15:18:04;3.93;;;3.43;;
44181;SDS011;30436;48.888;9.202;2022-10-23T15:20:30;5.50;;;3.60;;
44181;SDS011;30436;48.888;9.202;2022-10-23T15:22:56;3.80;;;2.97;;
44181;SDS011;30436;48.888;9.202;2022-10-23T15:25:21;5.97;;;3.17;;
44181;SDS011;30436;48.888;9.202;2022-10-23T15:27:47;4.43;;;2.67;;
44181;SDS011;30436;48.888;9.202;2022-10-23T15:30:13;3.50;;;2.70;;
44181;SDS011;30436;48.888;9.202;2022-10-23T15:32:39;5.47;;;2.93;;
44181;SDS011;30436;48.888;9.202;2022-10-23T15:35:05;4.00;;;2.90;;
44181;SDS011;30436;48.888;9.202;2022-10-23T15:37:31;3.33;;;3.03;;
44181;SDS011;30436;48.888;9.202;2022-10-23T15:39:57;5.83;;;4.10;;
44181;SDS011;30436;48.888;9.202;2022-10-23T15:42:22;7.93;;;5.60;;
44181;SDS011;30436;48.888;9.202;2022-10-23T15:44:48;3.33;;;2.80;;
44181;SDS011;30436;48.888;9.202;2022-10-23T15:47:14;5.13;;;3.93;;
44181;SDS011;30436;48.888;9.202;2022-10-23T15:49:39;5.07;;;3.77;;
44181;SDS011;30436;48.888;9.202;2022-10-23T15:52:05;6.20;;;3.23;;
44181;SDS011;30436;48.888;9.202;2022-10-23T15:54:32;4.67;;;3.23;;
44181;SDS011;30436;48.888;9.202;2022-10-23T15:56:59;3.57;;;3.27;;
44181;SDS011;30436;48.888;9.202;2022-10-23T15:59:26;4.07;;;2.70;;
44181;SDS011;30436;48.888;9.202;2022-10-23T16:01:53;4.67;;;2.97;;
44181;SDS011;30436;48.888;9.202;2022-10-23T16:04:19;5.03;;;2.70;;
44181;SDS011;30436;48.888;9.202;2022-10-23T16:06:45;3.40;;;3.07;;
44181;SDS011;30436;48.888;9.202;2022-10-23T16:09:11;6.03;;;2.93;;
44181;SDS011;30436;48.888;9.202;2022-10-23T16:11:38;3.70;;;2.70;;
44181;SDS011;30436;48.888;9.202;2022-10-23T16:14:05;4.73;;;2.60;;
44181;SDS011;30436;48.888;9.202;2022-10-23T16:16:32;6.30;;;2.43;;
44181;SDS011;30436;48.888;9.202;2022-10-23T16:18:58;4.57;;;2.83;;
44181;SDS011;30436;48.888;9.202;2022-10-23T16:21:26;2.67;;;2.47;;
44181;SDS011;30436;48.888;9.202;2022-10-23T16:23:54;5.33;;;2.77;;
44181;SDS011;30436;48.888;9.202;2022-10-23T16:26:21;5.77;;;2.60;;
44181;SDS011;30436;48.888;9.202;2022-10-23T16:28:53;4.27;;;2.70;;
44181;SDS011;30436;48.888;9.202;2022-10-23T16:31:21;5.40;;;2.03;;
44181;SDS011;30436;48.888;9.202;2022-10-23T16:33:47;4.23;;;2.60;;
44181;SDS011;30436;48.888;9.202;2022-10-23T16:36:14;4.00;;;2.40;;
44181;SDS011;30436;48.888;9.202;2022-10-23T16:39:00;3.70;;;2.10;;
44181;SDS011;30436;48.888;9.202;2022-10-23T16:41:45;3.40;;;3.00;;
44181;SDS011;30436;48.888;9.202;2022-10-23T16:44:17;5.40;;;3.07;;
44181;SDS011;30436;48.888;9.202;2022-10-23T16:47:08;4.57;;;2.23;;
44181;SDS011;30436;48.888;9.202;2022-10-23T16:49:34;4.00;;;2.77;;
44181;SDS011;30436;48.888;9.202;2022-10-23T16:52:00;4.10;;;2.67;;
44181;SDS011;30436;48.888;9.202;2022-10-23T16:54:26;3.53;;;2.77;;
44181;SDS011;30436;48.888;9.202;2022-10-23T16:56:51;3.00;;;2.70;;